(°F)
79°
79°
79°
79°
79°
78°
76°
(°F)
85°
85°
85°
86°
86°
84°
81°
WSW
WSW
WSW
WSW
WSW
WSW
WSW
(mph)
6-16
6-16
6-15
6-14
6-14
7-16
8-20
(in)
0
0
0
0
0
0.1
0.1
(%)
51
53
57
60
63
66
70

Sun elevation

/ -38°
sun-icon
UV 8
06:31
20:28
Waxing crescent moon (58°)
11:03
00:06

METAR for Tampa (KTPF)

Time Conditions Temperature/
Dewpoint
Wind Visibility Weather Clouds Pressure Change Raw
VFR 82.4°F / 75.2°F 240º 5kt >10km - Scattered Clouds 2400ft - KTPF 150435Z AUTO 24005KT 10SM SCT024 SCT085 OVC110 28/24 A2997 RMK AO2
VFR 82.4°F / 75.2°F 230º 5kt >10km - Scattered Clouds 2500ft - KTPF 150415Z AUTO 23005KT 10SM SCT025 BKN100 OVC120 28/24 A2997 RMK AO2
VFR 82.4°F / 75.2°F 250º 5kt >10km - Broken Clouds 11000ft - KTPF 150355Z AUTO 25005KT 10SM BKN110 28/24 A2997 RMK AO2
VFR 82.4°F / 75.2°F 230º 5kt >10km - Scattered Clouds 2900ft - KTPF 150315Z AUTO 23005KT 10SM SCT029 BKN095 OVC120 28/24 A2997 RMK AO2
VFR 82.4°F / 75.2°F 230º 5kt >10km - Scattered Clouds 2400ft - KTPF 150255Z AUTO 23005KT 10SM SCT024 BKN085 OVC110 28/24 A2997 RMK AO2
VFR 82.4°F / 75.2°F 240º 3kt >10km - Scattered Clouds 2200ft - KTPF 150235Z AUTO 24003KT 10SM SCT022 OVC100 28/24 A2997 RMK AO2
VFR 82.4°F / 75.2°F 240º 8kt >10km - Scattered Clouds 2800ft - KTPF 150215Z AUTO 24008KT 10SM SCT028 SCT075 OVC100 28/24 A2997 RMK AO2
VFR 82.4°F / 75.2°F 220º 7kt >10km - Scattered Clouds 2600ft - KTPF 150155Z AUTO 22007KT 10SM SCT026 BKN100 OVC120 28/24 A2996 RMK AO2
VFR 82.4°F / 73.4°F 240º 7kt >10km - Overcast 10000ft - KTPF 150135Z AUTO 24007KT 10SM OVC100 28/23 A2996 RMK AO2
VFR 82.4°F / 73.4°F 240º 6kt >10km - Scattered Clouds 2400ft - KTPF 150115Z AUTO 24006KT 10SM SCT024 SCT044 OVC100 28/23 A2995 RMK AO2
VFR 82.4°F / 73.4°F 240º 5kt >10km - Scattered Clouds 3000ft - KTPF 150055Z AUTO 24005KT 10SM SCT030 SCT075 OVC110 28/23 A2995 RMK AO2
VFR 82.4°F / 73.4°F 250º 5kt >10km - Overcast 11000ft - KTPF 150035Z AUTO 25005KT 10SM OVC110 28/23 A2993 RMK AO2
VFR 82.4°F / 73.4°F 240º 5kt >10km - Scattered Clouds 2700ft - KTPF 150015Z AUTO 24005KT 10SM SCT027 OVC110 28/23 A2994 RMK AO2
VFR 84.2°F / 73.4°F 230º 7kt >10km - Scattered Clouds 2900ft - KTPF 142355Z AUTO 23007KT 10SM SCT029 OVC110 29/23 A2993 RMK AO2
VFR 84.2°F / 73.4°F 220º 9kt >10km - Scattered Clouds 2900ft - KTPF 142335Z AUTO 22009KT 10SM SCT029 OVC110 29/23 A2992 RMK AO2
VFR 84.2°F / 73.4°F 230º 8kt >10km - Scattered Clouds 2900ft - KTPF 142315Z AUTO 23008KT 10SM SCT029 OVC110 29/23 A2991 RMK AO2
VFR 82.4°F / 73.4°F 230º 10kt >10km - Scattered Clouds 2900ft - KTPF 142255Z AUTO 23010KT 10SM SCT029 SCT055 OVC100 28/23 A2991 RMK AO2
VFR 84.2°F / 73.4°F 240º 6kt >10km - Scattered Clouds 2700ft - KTPF 142235Z AUTO 24006KT 10SM SCT027 BKN055 OVC110 29/23 A2991 RMK AO2
VFR 86°F / 73.4°F 230º 8kt >10km - Scattered Clouds 2700ft - KTPF 142215Z AUTO 23008KT 10SM SCT027 BKN035 OVC110 30/23 A2991 RMK AO2
VFR 86°F / 73.4°F 230º 9kt >10km - Scattered Clouds 5000ft - KTPF 142155Z AUTO 23009KT 10SM SCT050 SCT085 BKN100 30/23 A2991 RMK AO2
VFR 86°F / 73.4°F 230º 10kt Gust 14kt >10km - Broken Clouds 11000ft - KTPF 142135Z AUTO 23010G14KT 10SM BKN110 30/23 A2991 RMK AO2
VFR 87.8°F / 73.4°F 230º 12kt Gust 17kt >10km - Scattered Clouds 3800ft - KTPF 142115Z AUTO 23012G17KT 10SM SCT038 SCT065 BKN110 31/23 A2991 RMK AO2
VFR 86°F / 73.4°F 240º 10kt Gust 18kt >10km - Broken Clouds 3200ft - KTPF 142055Z AUTO 24010G18KT 10SM BKN032 BKN046 BKN060 30/23 A2991 RMK AO2
MVFR 86°F / 75.2°F 230º 16kt Gust 20kt >10km - Broken Clouds 2600ft - KTPF 142035Z AUTO 23016G20KT 10SM BKN026 BKN032 OVC060 30/24 A2991 RMK AO2

VFR

82.4°F / 75.2°F

[More]
Wind 240º 5kt
Visibility >10km
Weather -
Clouds Scattered Clouds 2400ft
Pressure
Change -
Raw KTPF 150435Z AUTO 24005KT 10SM SCT024 SCT085 OVC110 28/24 A2997 RMK AO2

VFR

82.4°F / 75.2°F

[More]
Wind 230º 5kt
Visibility >10km
Weather -
Clouds Scattered Clouds 2500ft
Pressure
Change -
Raw KTPF 150415Z AUTO 23005KT 10SM SCT025 BKN100 OVC120 28/24 A2997 RMK AO2

VFR

82.4°F / 75.2°F

[More]
Wind 250º 5kt
Visibility >10km
Weather -
Clouds Broken Clouds 11000ft
Pressure
Change -
Raw KTPF 150355Z AUTO 25005KT 10SM BKN110 28/24 A2997 RMK AO2

VFR

82.4°F / 75.2°F

[More]
Wind 230º 5kt
Visibility >10km
Weather -
Clouds Scattered Clouds 2900ft
Pressure
Change -
Raw KTPF 150315Z AUTO 23005KT 10SM SCT029 BKN095 OVC120 28/24 A2997 RMK AO2

VFR

82.4°F / 75.2°F

[More]
Wind 230º 5kt
Visibility >10km
Weather -
Clouds Scattered Clouds 2400ft
Pressure
Change -
Raw KTPF 150255Z AUTO 23005KT 10SM SCT024 BKN085 OVC110 28/24 A2997 RMK AO2

VFR

82.4°F / 75.2°F

[More]
Wind 240º 3kt
Visibility >10km
Weather -
Clouds Scattered Clouds 2200ft
Pressure
Change -
Raw KTPF 150235Z AUTO 24003KT 10SM SCT022 OVC100 28/24 A2997 RMK AO2

VFR

82.4°F / 75.2°F

[More]
Wind 240º 8kt
Visibility >10km
Weather -
Clouds Scattered Clouds 2800ft
Pressure
Change -
Raw KTPF 150215Z AUTO 24008KT 10SM SCT028 SCT075 OVC100 28/24 A2997 RMK AO2

VFR

82.4°F / 75.2°F

[More]
Wind 220º 7kt
Visibility >10km
Weather -
Clouds Scattered Clouds 2600ft
Pressure
Change -
Raw KTPF 150155Z AUTO 22007KT 10SM SCT026 BKN100 OVC120 28/24 A2996 RMK AO2

VFR

82.4°F / 73.4°F

[More]
Wind 240º 7kt
Visibility >10km
Weather -
Clouds Overcast 10000ft
Pressure
Change -
Raw KTPF 150135Z AUTO 24007KT 10SM OVC100 28/23 A2996 RMK AO2

VFR

82.4°F / 73.4°F

[More]
Wind 240º 6kt
Visibility >10km
Weather -
Clouds Scattered Clouds 2400ft
Pressure
Change -
Raw KTPF 150115Z AUTO 24006KT 10SM SCT024 SCT044 OVC100 28/23 A2995 RMK AO2

VFR

82.4°F / 73.4°F

[More]
Wind 240º 5kt
Visibility >10km
Weather -
Clouds Scattered Clouds 3000ft
Pressure
Change -
Raw KTPF 150055Z AUTO 24005KT 10SM SCT030 SCT075 OVC110 28/23 A2995 RMK AO2

VFR

82.4°F / 73.4°F

[More]
Wind 250º 5kt
Visibility >10km
Weather -
Clouds Overcast 11000ft
Pressure
Change -
Raw KTPF 150035Z AUTO 25005KT 10SM OVC110 28/23 A2993 RMK AO2

VFR

82.4°F / 73.4°F

[More]
Wind 240º 5kt
Visibility >10km
Weather -
Clouds Scattered Clouds 2700ft
Pressure
Change -
Raw KTPF 150015Z AUTO 24005KT 10SM SCT027 OVC110 28/23 A2994 RMK AO2

VFR

84.2°F / 73.4°F

[More]
Wind 230º 7kt
Visibility >10km
Weather -
Clouds Scattered Clouds 2900ft
Pressure
Change -
Raw KTPF 142355Z AUTO 23007KT 10SM SCT029 OVC110 29/23 A2993 RMK AO2

VFR

84.2°F / 73.4°F

[More]
Wind 220º 9kt
Visibility >10km
Weather -
Clouds Scattered Clouds 2900ft
Pressure
Change -
Raw KTPF 142335Z AUTO 22009KT 10SM SCT029 OVC110 29/23 A2992 RMK AO2

VFR

84.2°F / 73.4°F

[More]
Wind 230º 8kt
Visibility >10km
Weather -
Clouds Scattered Clouds 2900ft
Pressure
Change -
Raw KTPF 142315Z AUTO 23008KT 10SM SCT029 OVC110 29/23 A2991 RMK AO2

VFR

82.4°F / 73.4°F

[More]
Wind 230º 10kt
Visibility >10km
Weather -
Clouds Scattered Clouds 2900ft
Pressure
Change -
Raw KTPF 142255Z AUTO 23010KT 10SM SCT029 SCT055 OVC100 28/23 A2991 RMK AO2

VFR

84.2°F / 73.4°F

[More]
Wind 240º 6kt
Visibility >10km
Weather -
Clouds Scattered Clouds 2700ft
Pressure
Change -
Raw KTPF 142235Z AUTO 24006KT 10SM SCT027 BKN055 OVC110 29/23 A2991 RMK AO2

VFR

86°F / 73.4°F

[More]
Wind 230º 8kt
Visibility >10km
Weather -
Clouds Scattered Clouds 2700ft
Pressure
Change -
Raw KTPF 142215Z AUTO 23008KT 10SM SCT027 BKN035 OVC110 30/23 A2991 RMK AO2

VFR

86°F / 73.4°F

[More]
Wind 230º 9kt
Visibility >10km
Weather -
Clouds Scattered Clouds 5000ft
Pressure
Change -
Raw KTPF 142155Z AUTO 23009KT 10SM SCT050 SCT085 BKN100 30/23 A2991 RMK AO2

VFR

86°F / 73.4°F

[More]
Wind 230º 10kt Gust 14kt
Visibility >10km
Weather -
Clouds Broken Clouds 11000ft
Pressure
Change -
Raw KTPF 142135Z AUTO 23010G14KT 10SM BKN110 30/23 A2991 RMK AO2

VFR

87.8°F / 73.4°F

[More]
Wind 230º 12kt Gust 17kt
Visibility >10km
Weather -
Clouds Scattered Clouds 3800ft
Pressure
Change -
Raw KTPF 142115Z AUTO 23012G17KT 10SM SCT038 SCT065 BKN110 31/23 A2991 RMK AO2

VFR

86°F / 73.4°F

[More]
Wind 240º 10kt Gust 18kt
Visibility >10km
Weather -
Clouds Broken Clouds 3200ft
Pressure
Change -
Raw KTPF 142055Z AUTO 24010G18KT 10SM BKN032 BKN046 BKN060 30/23 A2991 RMK AO2

MVFR

86°F / 75.2°F

[More]
Wind 230º 16kt Gust 20kt
Visibility >10km
Weather -
Clouds Broken Clouds 2600ft
Pressure
Change -
Raw KTPF 142035Z AUTO 23016G20KT 10SM BKN026 BKN032 OVC060 30/24 A2991 RMK AO2

Current satellite images for Tampa, United States of America

The location marker is placed on Tampa. [More]

The real-time satellite image combines visible light during daytime with infrared radiation during nighttime. At night, the image is not dark as infrared radiation can detect temperature differences. Unfortunately, low clouds and fog are difficult to distinguish from ground temperatures and thus can be almost invisible during the night. Meteosat satellite images for Europe are updated in real-time every 5 minutes. GOES-16/GOES-17 (North & South America) and Himawari (Asia) images update every 10 minutes.

Radar and precipitation nowcast for Tampa

The location marker is placed on Tampa. This animation shows the precipitation radar for the last hour, as well as a 1h forecast. Drizzle or light snow fall might be invisible for the radar. Precipitation intensity is colour coded, ranging from light blue to heavy purple.